createdAt,value
2023-01-02T00:00:50.738Z,101061.84
2023-01-02T00:03:17.278Z,101060.72
2023-01-02T00:05:43.778Z,101057.59
2023-01-02T00:08:10.179Z,101046.47
2023-01-02T00:10:36.632Z,101048.31
2023-01-02T00:13:03.253Z,101053.16
2023-01-02T00:15:29.662Z,101040.59
2023-01-02T00:17:55.987Z,101040.59
2023-01-02T00:20:22.583Z,101043.19
2023-01-02T00:22:48.967Z,101041.03
2023-01-02T00:25:15.516Z,101037.88
2023-01-02T00:27:41.910Z,101039.34
2023-01-02T00:30:09.073Z,101031.78
2023-01-02T00:32:35.420Z,101027.19
2023-01-02T00:35:01.790Z,101020.38
2023-01-02T00:37:28.215Z,101023.94
2023-01-02T00:39:54.609Z,101014.25
2023-01-02T00:42:20.966Z,101012.09
2023-01-02T00:44:47.498Z,101027.63
2023-01-02T00:47:14.677Z,101016.50
2023-01-02T00:49:41.153Z,101005.69
2023-01-02T00:52:07.479Z,101003.13
2023-01-02T00:54:36.651Z,101000.41
2023-01-02T00:57:03.374Z,101000.97
2023-01-02T00:59:29.820Z,101007.13
2023-01-02T01:01:56.484Z,101007.84
2023-01-02T01:04:22.968Z,101005.84
2023-01-02T01:06:49.308Z,101007.53
2023-01-02T01:09:15.701Z,100995.00
2023-01-02T01:11:42.084Z,100997.97
2023-01-02T01:14:08.505Z,100999.38
2023-01-02T01:16:35.089Z,100997.09
2023-01-02T01:19:01.586Z,100997.38
2023-01-02T01:21:28.124Z,100995.97
2023-01-02T01:23:55.597Z,100992.53
2023-01-02T01:26:22.726Z,100994.22
2023-01-02T01:28:51.333Z,101001.34
2023-01-02T01:31:17.802Z,100987.78
2023-01-02T01:33:44.994Z,100987.78
2023-01-02T01:36:13.445Z,100984.53
2023-01-02T01:38:40.671Z,100988.97
2023-01-02T01:41:08.063Z,100986.50
2023-01-02T01:43:39.933Z,100978.69
2023-01-02T01:46:31.408Z,100986.09
2023-01-02T01:49:03.406Z,100981.53
2023-01-02T01:51:36.667Z,100980.69
2023-01-02T01:54:08.611Z,100981.53
2023-01-02T01:56:38.612Z,100987.94
2023-01-02T01:59:05.710Z,100984.38
2023-01-02T02:01:33.703Z,100979.41
2023-01-02T02:04:01.207Z,100981.53
2023-01-02T02:06:28.662Z,100977.97
2023-01-02T02:08:59.442Z,100977.38
2023-01-02T02:11:27.067Z,100973.66
2023-01-02T02:13:58.779Z,100976.22
2023-01-02T02:16:53.811Z,100982.50
2023-01-02T02:19:45.108Z,100977.94
2023-01-02T02:22:26.732Z,100978.50
2023-01-02T02:25:12.012Z,100970.78
2023-01-02T02:27:54.430Z,100980.31
2023-01-02T02:30:22.671Z,100975.03
2023-01-02T02:33:08.076Z,100980.72
2023-01-02T02:36:03.379Z,100981.28
2023-01-02T02:38:54.214Z,100983.56
2023-01-02T02:41:27.848Z,100980.69
2023-01-02T02:44:14.773Z,100976.81
2023-01-02T02:46:59.398Z,100976.06
2023-01-02T02:49:34.790Z,100976.63
2023-01-02T02:52:17.729Z,100976.56
2023-01-02T02:55:16.255Z,100974.88
2023-01-02T02:57:45.872Z,100970.81
2023-01-02T03:00:18.714Z,100958.28
2023-01-02T03:02:45.541Z,100957.38
2023-01-02T03:05:20.729Z,100968.63
2023-01-02T03:07:53.211Z,100960.19
2023-01-02T03:10:41.384Z,100960.81
2023-01-02T03:13:26.408Z,100958.47
2023-01-02T03:16:01.698Z,100945.59
2023-01-02T03:18:39.517Z,100954.22
2023-01-02T03:21:19.185Z,100955.53
2023-01-02T03:23:47.580Z,100959.97
2023-01-02T03:26:19.007Z,100959.69
2023-01-02T03:28:50.765Z,100960.81
2023-01-02T03:31:20.274Z,100957.94
2023-01-02T03:33:53.020Z,100957.34
2023-01-02T03:36:24.276Z,100955.00
2023-01-02T03:39:12.968Z,100956.16
2023-01-02T03:42:03.251Z,100956.00
2023-01-02T03:45:02.695Z,100958.59
2023-01-02T03:47:44.054Z,100950.88
2023-01-02T03:50:20.872Z,100960.88
2023-01-02T03:52:47.473Z,100959.41
2023-01-02T03:55:14.692Z,100969.34
2023-01-02T03:57:56.977Z,100963.06
2023-01-02T04:00:49.930Z,100971.53
2023-01-02T04:03:37.886Z,100969.34
2023-01-02T04:06:10.835Z,100977.50
2023-01-02T04:08:55.093Z,100969.19
2023-01-02T04:11:24.770Z,100977.66
2023-01-02T04:13:56.426Z,100982.78
2023-01-02T04:16:27.385Z,100975.94
2023-01-02T04:19:05.405Z,100976.47
2023-01-02T04:21:37.367Z,100969.69
2023-01-02T04:24:13.075Z,100978.09
2023-01-02T04:26:55.494Z,100987.59
2023-01-02T04:29:22.163Z,100975.31
2023-01-02T04:32:02.419Z,100980.34
2023-01-02T04:34:33.972Z,100982.47
2023-01-02T04:37:00.400Z,100983.22
2023-01-02T04:39:27.925Z,100985.00
2023-01-02T04:41:54.351Z,100971.09
2023-01-02T04:44:20.831Z,100985.84
2023-01-02T04:46:47.175Z,100978.53
2023-01-02T04:49:13.478Z,100976.38
2023-01-02T04:51:39.926Z,100989.13
2023-01-02T04:54:06.266Z,100986.16
2023-01-02T04:56:32.684Z,100979.16
2023-01-02T04:58:59.667Z,100973.97
2023-01-02T05:01:26.658Z,100978.69
2023-01-02T05:03:53.333Z,100982.50
2023-01-02T05:06:20.446Z,100988.81
2023-01-02T05:08:47.012Z,101000.97
2023-01-02T05:11:19.036Z,100995.84
2023-01-02T05:13:45.557Z,100991.84
2023-01-02T05:16:12.472Z,100998.41
2023-01-02T05:18:38.839Z,101022.25
2023-01-02T05:21:07.874Z,101005.69
2023-01-02T05:23:34.249Z,101009.25
2023-01-02T05:26:00.621Z,101025.84
2023-01-02T05:28:27.056Z,101029.44
2023-01-02T05:30:53.403Z,101020.44
2023-01-02T05:33:19.781Z,101013.31
2023-01-02T05:35:46.167Z,101015.88
2023-01-02T05:38:12.528Z,101012.84
2023-01-02T05:40:38.904Z,101017.16
2023-01-02T05:43:05.212Z,101015.25
2023-01-02T05:45:31.516Z,101021.53
2023-01-02T05:47:57.858Z,101027.56
2023-01-02T05:50:24.221Z,101025.31
2023-01-02T05:52:50.676Z,101038.56
2023-01-02T05:55:17.059Z,101052.19
2023-01-02T05:57:43.443Z,101077.31
2023-01-02T06:00:10.464Z,101092.59
2023-01-02T06:02:36.904Z,101114.47
2023-01-02T06:05:03.498Z,101124.47
2023-01-02T06:07:29.850Z,101145.00
2023-01-02T06:09:56.360Z,101138.56
2023-01-02T06:12:22.789Z,101150.53
2023-01-02T06:14:49.160Z,101149.09
2023-01-02T06:17:15.924Z,101159.78
2023-01-02T06:19:42.354Z,101156.44
2023-01-02T06:22:08.869Z,101164.97
2023-01-02T06:24:35.237Z,101185.47
2023-01-02T06:27:01.649Z,101190.03
2023-01-02T06:29:28.185Z,101192.69
2023-01-02T06:31:54.600Z,101207.16
2023-01-02T06:34:21.019Z,101217.41
2023-01-02T06:36:47.488Z,101222.38
2023-01-02T06:39:13.922Z,101223.22
2023-01-02T06:41:40.420Z,101232.47
2023-01-02T06:44:06.780Z,101239.44
2023-01-02T06:46:33.279Z,101242.66
2023-01-02T06:48:59.650Z,101255.72
2023-01-02T06:51:26.284Z,101269.69
2023-01-02T06:53:52.614Z,101266.06
2023-01-02T06:56:20.980Z,101270.84
2023-01-02T06:58:47.517Z,101264.69
2023-01-02T07:01:16.690Z,101274.91
2023-01-02T07:03:43.895Z,101285.19
2023-01-02T07:06:15.836Z,101293.72
2023-01-02T07:08:42.696Z,101297.28
2023-01-02T07:11:17.682Z,101299.84
2023-01-02T07:13:45.032Z,101305.16
2023-01-02T07:16:13.642Z,101311.72
2023-01-02T07:18:40.430Z,101306.03
2023-01-02T07:21:08.291Z,101311.94
2023-01-02T07:23:35.264Z,101325.38
2023-01-02T07:26:04.054Z,101322.38
2023-01-02T07:28:31.055Z,101331.03
2023-01-02T07:30:59.567Z,101347.13
2023-01-02T07:33:27.787Z,101349.28
2023-01-02T07:36:02.017Z,101354.28
2023-01-02T07:38:28.915Z,101358.09
2023-01-02T07:40:55.371Z,101385.63
2023-01-02T07:43:21.983Z,101389.81
2023-01-02T07:45:50.545Z,101403.69
2023-01-02T07:48:17.929Z,101410.31
2023-01-02T07:50:45.941Z,101414.38
2023-01-02T07:53:12.320Z,101417.59
2023-01-02T07:55:38.759Z,101432.59
2023-01-02T07:58:05.153Z,101440.56
2023-01-02T08:00:32.262Z,101447.94
2023-01-02T08:02:58.681Z,101457.25
2023-01-02T08:05:25.046Z,101462.78
2023-01-02T08:07:51.938Z,101474.81
2023-01-02T08:10:18.459Z,101475.44
2023-01-02T08:12:45.423Z,101481.34
2023-01-02T08:15:11.796Z,101493.75
2023-01-02T08:17:38.239Z,101487.84
2023-01-02T08:20:08.315Z,101491.66
2023-01-02T08:22:35.122Z,101494.50
2023-01-02T08:25:01.775Z,101505.78
2023-01-02T08:27:28.478Z,101502.34
2023-01-02T08:29:54.957Z,101508.63
2023-01-02T08:32:21.451Z,101513.75
2023-01-02T08:34:48.089Z,101520.53
2023-01-02T08:37:14.776Z,101517.81
2023-01-02T08:39:41.222Z,101517.69
2023-01-02T08:42:08.269Z,101523.34
2023-01-02T08:44:35.821Z,101522.97
2023-01-02T08:47:02.224Z,101521.47
2023-01-02T08:49:28.598Z,101533.78
2023-01-02T08:51:55.007Z,101529.47
2023-01-02T08:54:21.572Z,101529.84
2023-01-02T08:56:48.223Z,101545.69
2023-01-02T08:59:15.198Z,101553.78
2023-01-02T09:01:41.783Z,101562.50
2023-01-02T09:04:12.349Z,101564.00
2023-01-02T09:06:40.066Z,101572.97
2023-01-02T09:09:11.605Z,101577.25
2023-01-02T09:11:44.196Z,101583.66
2023-01-02T09:14:10.727Z,101588.06
2023-01-02T09:16:37.111Z,101595.44
2023-01-02T09:19:04.283Z,101601.97
2023-01-02T09:21:30.967Z,101597.28
2023-01-02T09:23:57.671Z,101608.22
2023-01-02T09:26:24.244Z,101603.56
2023-01-02T09:28:51.137Z,101612.91
2023-01-02T09:31:19.016Z,101620.75
2023-01-02T09:33:46.518Z,101618.47
2023-01-02T09:36:15.251Z,101628.66
2023-01-02T09:38:42.258Z,101639.13
2023-01-02T09:41:31.496Z,101645.25
2023-01-02T09:44:21.043Z,101633.09
2023-01-02T09:47:00.268Z,101638.34
2023-01-02T09:49:33.503Z,101638.09
2023-01-02T09:51:59.988Z,101646.19
2023-01-02T09:54:31.906Z,101655.28
2023-01-02T09:57:27.054Z,101657.69
2023-01-02T10:00:22.962Z,101663.47
2023-01-02T10:03:08.708Z,101674.03
2023-01-02T10:05:41.483Z,101675.78
2023-01-02T10:08:27.820Z,101673.59
2023-01-02T10:11:41.299Z,101673.84
2023-01-02T10:14:31.431Z,101677.63
2023-01-02T10:17:03.646Z,101679.75
2023-01-02T10:19:40.631Z,101664.63
2023-01-02T10:22:12.196Z,101662.97
2023-01-02T10:25:03.308Z,101674.91
2023-01-02T10:27:39.990Z,101674.47
2023-01-02T10:30:25.447Z,101665.03
2023-01-02T10:33:18.410Z,101661.00
2023-01-02T10:35:53.093Z,101663.09
2023-01-02T10:38:20.582Z,101667.06
2023-01-02T10:40:52.930Z,101668.28
2023-01-02T10:43:19.710Z,101664.75
2023-01-02T10:45:46.142Z,101664.50
2023-01-02T10:48:13.181Z,101686.88
2023-01-02T10:50:54.178Z,101687.25
2023-01-02T10:53:36.561Z,101687.22
2023-01-02T10:56:07.532Z,101705.22
2023-01-02T10:58:35.243Z,101689.78
2023-01-02T11:01:12.140Z,101693.78
2023-01-02T11:03:40.046Z,101688.28
2023-01-02T11:06:35.168Z,101679.50
2023-01-02T11:09:35.440Z,101702.09
2023-01-02T11:12:13.634Z,101702.81
2023-01-02T11:14:40.410Z,101707.97
2023-01-02T11:17:13.448Z,101713.50
2023-01-02T11:19:47.963Z,101716.03
2023-01-02T11:22:18.019Z,101715.97
2023-01-02T11:25:00.650Z,101714.53
2023-01-02T11:27:36.640Z,101718.38
2023-01-02T11:30:06.233Z,101717.03
2023-01-02T11:32:38.320Z,101720.84
2023-01-02T11:35:06.038Z,101734.00
2023-01-02T11:37:32.444Z,101739.91
2023-01-02T11:40:05.068Z,101739.41
2023-01-02T11:42:40.738Z,101737.72
2023-01-02T11:45:15.906Z,101746.03
2023-01-02T11:47:56.035Z,101739.28
2023-01-02T11:50:34.580Z,101737.59
2023-01-02T11:53:20.540Z,101743.84
2023-01-02T11:55:56.657Z,101739.91
2023-01-02T11:58:45.197Z,101721.03
2023-01-02T12:01:22.121Z,101732.75
2023-01-02T12:03:48.876Z,101743.97
2023-01-02T12:06:19.854Z,101744.53
2023-01-02T12:09:12.179Z,101743.75
2023-01-02T12:12:11.350Z,101746.75
2023-01-02T12:14:59.513Z,101760.66
2023-01-02T12:18:11.349Z,101736.44
2023-01-02T12:21:07.019Z,101743.50
2023-01-02T12:23:55.447Z,101745.28
2023-01-02T12:26:27.977Z,101760.84
2023-01-02T12:29:46.837Z,101768.38
2023-01-02T12:32:08.678Z,101781.41
2023-01-02T12:35:13.114Z,101770.59
2023-01-02T12:37:59.460Z,101773.63
2023-01-02T12:40:52.584Z,101776.13
2023-01-02T12:43:43.822Z,101780.44
2023-01-02T12:46:16.440Z,101766.19
2023-01-02T12:49:10.193Z,101759.72
2023-01-02T12:51:47.930Z,101759.97
2023-01-02T12:54:29.483Z,101768.97
2023-01-02T12:57:29.624Z,101790.72
2023-01-02T13:00:02.857Z,101768.13
2023-01-02T13:03:01.378Z,101786.69
2023-01-02T13:05:34.553Z,101775.25
2023-01-02T13:08:30.172Z,101781.41
2023-01-02T13:11:01.339Z,101785.63
2023-01-02T13:13:34.867Z,101787.84
2023-01-02T13:16:22.567Z,101799.41
2023-01-02T13:19:13.346Z,101806.88
2023-01-02T13:22:15.746Z,101800.16
2023-01-02T13:24:42.887Z,101796.75
2023-01-02T13:27:10.605Z,101794.19
2023-01-02T13:29:45.847Z,101809.31
2023-01-02T13:32:14.740Z,101807.53
2023-01-02T13:34:55.787Z,101807.59
2023-01-02T13:37:25.694Z,101816.22
2023-01-02T13:39:58.895Z,101812.19
2023-01-02T13:42:37.345Z,101810.94
2023-01-02T13:45:11.156Z,101815.47
2023-01-02T13:47:38.717Z,101818.28
2023-01-02T13:50:27.586Z,101826.50
2023-01-02T13:53:14.216Z,101818.41
2023-01-02T13:55:40.536Z,101821.56
2023-01-02T13:58:12.884Z,101824.69
2023-01-02T14:00:41.932Z,101822.22
2023-01-02T14:03:23.989Z,101818.63
2023-01-02T14:05:57.169Z,101821.69
2023-01-02T14:08:32.798Z,101846.00
2023-01-02T14:11:29.784Z,101844.03
2023-01-02T14:13:56.389Z,101843.19
2023-01-02T14:16:22.748Z,101850.84
2023-01-02T14:19:17.098Z,101849.13
2023-01-02T14:21:51.424Z,101850.06
2023-01-02T14:24:39.044Z,101861.47
2023-01-02T14:27:06.963Z,101863.59
2023-01-02T14:29:46.047Z,101868.69
2023-01-02T14:32:29.495Z,101864.56
2023-01-02T14:34:58.396Z,101869.09
2023-01-02T14:37:36.866Z,101872.50
2023-01-02T14:40:18.409Z,101889.25
2023-01-02T14:42:49.943Z,101885.56
2023-01-02T14:45:20.852Z,101885.66
2023-01-02T14:47:52.705Z,101890.97
2023-01-02T14:50:25.550Z,101892.78
2023-01-02T14:52:59.902Z,101903.66
2023-01-02T14:55:31.039Z,101906.66
2023-01-02T14:58:00.933Z,101902.66
2023-01-02T15:00:32.411Z,101912.94
2023-01-02T15:03:38.093Z,101927.19
2023-01-02T15:06:22.873Z,101928.06
2023-01-02T15:08:52.439Z,101932.50
2023-01-02T15:11:27.068Z,101932.91
2023-01-02T15:14:05.228Z,101935.53
2023-01-02T15:16:41.633Z,101936.50
2023-01-02T15:19:35.941Z,101925.38
2023-01-02T15:22:10.809Z,101938.13
2023-01-02T15:24:37.882Z,101948.81
2023-01-02T15:27:23.245Z,101957.03
2023-01-02T15:29:52.392Z,101969.88
2023-01-02T15:32:27.724Z,101967.28
2023-01-02T15:35:28.860Z,101975.41
2023-01-02T15:37:55.782Z,101977.13
2023-01-02T15:40:35.763Z,101988.38
2023-01-02T15:43:11.900Z,101995.94
2023-01-02T15:45:46.982Z,102000.34
2023-01-02T15:48:15.527Z,102005.56
2023-01-02T15:50:42.660Z,102015.81
2023-01-02T15:53:26.915Z,102008.88
2023-01-02T15:55:53.615Z,102023.25
2023-01-02T15:58:31.356Z,102026.78
2023-01-02T16:01:13.087Z,102034.34
2023-01-02T16:04:01.325Z,102035.22
2023-01-02T16:06:43.399Z,102035.13
2023-01-02T16:09:24.766Z,102042.66
2023-01-02T16:11:55.288Z,102048.63
2023-01-02T16:14:26.868Z,102049.25
2023-01-02T16:17:18.164Z,102052.59
2023-01-02T16:19:56.234Z,102052.69
2023-01-02T16:22:48.706Z,102061.00
2023-01-02T16:25:21.743Z,102072.03
2023-01-02T16:27:53.904Z,102076.34
2023-01-02T16:30:23.255Z,102075.78
2023-01-02T16:32:50.026Z,102072.81
2023-01-02T16:35:21.177Z,102078.28
2023-01-02T16:37:55.115Z,102091.31
2023-01-02T16:41:01.071Z,102091.69
2023-01-02T16:43:11.691Z,102095.94
2023-01-02T16:45:39.149Z,102102.53
2023-01-02T16:48:08.189Z,102103.31
2023-01-02T16:50:41.158Z,102106.97
2023-01-02T16:53:08.728Z,102102.34
2023-01-02T16:55:35.119Z,102109.94
2023-01-02T16:58:01.514Z,102118.41
2023-01-02T17:00:27.956Z,102113.03
2023-01-02T17:02:54.643Z,102123.25
2023-01-02T17:05:41.870Z,102132.91
2023-01-02T17:08:10.374Z,102136.97
2023-01-02T17:10:36.865Z,102139.34
2023-01-02T17:13:04.339Z,102142.38
2023-01-02T17:15:30.899Z,102150.09
2023-01-02T17:17:57.335Z,102151.38
2023-01-02T17:20:24.336Z,102160.59
2023-01-02T17:22:53.181Z,102161.78
2023-01-02T17:25:19.654Z,102155.22
2023-01-02T17:27:46.527Z,102169.50
2023-01-02T17:30:14.913Z,102161.41
2023-01-02T17:32:42.746Z,102172.81
2023-01-02T17:35:10.570Z,102170.28
2023-01-02T17:37:37.605Z,102166.63
2023-01-02T17:40:06.258Z,102175.09
2023-01-02T17:42:32.917Z,102168.53
2023-01-02T17:44:59.443Z,102174.31
2023-01-02T17:50:13.596Z,102181.41
2023-01-02T17:52:40.043Z,102189.97
2023-01-02T17:55:08.395Z,102199.75
2023-01-02T17:57:36.596Z,102202.66
2023-01-02T18:00:14.724Z,102206.47
2023-01-02T18:02:42.072Z,102216.28
2023-01-02T18:05:09.924Z,102214.16
2023-01-02T18:07:36.291Z,102212.09
2023-01-02T18:10:08.198Z,102222.28
2023-01-02T18:12:36.282Z,102227.06
2023-01-02T18:15:10.563Z,102237.22
2023-01-02T18:17:37.079Z,102230.69
2023-01-02T18:20:10.404Z,102236.38
2023-01-02T18:22:38.218Z,102234.09
2023-01-02T18:25:16.027Z,102254.00
2023-01-02T18:27:42.509Z,102263.78
2023-01-02T18:30:23.897Z,102272.31
2023-01-02T18:33:00.700Z,102279.78
2023-01-02T18:38:30.064Z,102272.03
2023-01-02T18:40:56.941Z,102281.59
2023-01-02T18:43:28.779Z,102279.84
2023-01-02T18:45:58.635Z,102286.56
2023-01-02T18:48:25.079Z,102298.34
2023-01-02T18:51:00.086Z,102300.25
2023-01-02T18:53:30.942Z,102302.94
2023-01-02T18:56:01.559Z,102308.53
2023-01-02T18:58:41.719Z,102314.16
2023-01-02T19:01:37.605Z,102328.56
2023-01-02T19:04:18.875Z,102328.13
2023-01-02T19:06:51.914Z,102330.03
2023-01-02T19:09:29.528Z,102327.81
2023-01-02T19:12:13.010Z,102329.75
2023-01-02T19:14:41.604Z,102334.56
2023-01-02T19:17:21.215Z,102340.84
2023-01-02T19:19:47.828Z,102346.22
2023-01-02T19:22:23.793Z,102354.75
2023-01-02T19:24:50.273Z,102357.47
2023-01-02T19:27:24.173Z,102358.69
2023-01-02T19:29:50.944Z,102350.22
2023-01-02T19:32:25.470Z,102367.22
2023-01-02T19:34:55.844Z,102368.94
2023-01-02T19:37:41.284Z,102372.91
2023-01-02T19:40:18.972Z,102375.06
2023-01-02T19:42:47.175Z,102376.19
2023-01-02T19:45:21.515Z,102388.75
2023-01-02T19:47:48.946Z,102376.94
2023-01-02T19:50:18.617Z,102381.69
2023-01-02T19:52:45.219Z,102392.94
2023-01-02T19:55:12.723Z,102394.75
2023-01-02T19:57:39.375Z,102397.81
2023-01-02T20:00:09.861Z,102396.47
2023-01-02T20:02:37.385Z,102400.34
2023-01-02T20:05:05.971Z,102406.72
2023-01-02T20:07:32.838Z,102407.59
2023-01-02T20:09:59.897Z,102414.22
2023-01-02T20:12:26.311Z,102413.50
2023-01-02T20:14:52.777Z,102413.00
2023-01-02T20:17:20.037Z,102414.00
2023-01-02T20:19:46.419Z,102415.88
2023-01-02T20:22:12.843Z,102425.84
2023-01-02T20:24:39.659Z,102429.84
2023-01-02T20:27:06.349Z,102438.03
2023-01-02T20:29:33.024Z,102428.56
2023-01-02T20:32:00.456Z,102441.91
2023-01-02T20:34:26.840Z,102443.78
2023-01-02T20:36:53.165Z,102441.38
2023-01-02T20:39:19.690Z,102438.69
2023-01-02T20:41:46.482Z,102447.47
2023-01-02T20:44:13.990Z,102450.22
2023-01-02T20:46:40.772Z,102456.72
2023-01-02T20:49:08.676Z,102462.06
2023-01-02T20:51:35.583Z,102469.16
2023-01-02T20:54:02.752Z,102469.09
2023-01-02T20:56:30.171Z,102476.41
2023-01-02T20:58:59.840Z,102475.53
2023-01-02T21:01:26.843Z,102469.59
2023-01-02T21:03:53.592Z,102469.75
2023-01-02T21:06:20.301Z,102478.75
2023-01-02T21:08:46.693Z,102477.22
2023-01-02T21:11:14.796Z,102477.13
2023-01-02T21:13:41.231Z,102481.50
2023-01-02T21:16:07.734Z,102486.19
2023-01-02T21:18:37.516Z,102487.34
2023-01-02T21:21:11.002Z,102500.94
2023-01-02T21:23:39.845Z,102501.84
2023-01-02T21:26:08.584Z,102499.38
2023-01-02T21:28:35.937Z,102495.88
2023-01-02T21:31:02.573Z,102504.25
2023-01-02T21:33:29.859Z,102507.09
2023-01-02T21:35:59.905Z,102508.22
2023-01-02T21:38:27.477Z,102505.69
2023-01-02T21:40:55.073Z,102512.06
2023-01-02T21:43:22.463Z,102516.63
2023-01-02T21:45:49.083Z,102520.50
2023-01-02T21:48:15.408Z,102513.34
2023-01-02T21:50:41.860Z,102526.13
2023-01-02T21:53:08.204Z,102525.50
2023-01-02T21:55:34.740Z,102528.13
2023-01-02T21:58:16.596Z,102527.38
2023-01-02T22:00:43.532Z,102531.81
2023-01-02T22:03:10.698Z,102542.16
2023-01-02T22:05:38.230Z,102538.53
2023-01-02T22:08:04.898Z,102544.56
2023-01-02T22:10:31.257Z,102546.31
2023-01-02T22:12:57.661Z,102550.06
2023-01-02T22:15:24.424Z,102552.47
2023-01-02T22:17:50.762Z,102557.78
2023-01-02T22:20:17.227Z,102548.28
2023-01-02T22:22:43.767Z,102558.19
2023-01-02T22:25:10.714Z,102561.25
2023-01-02T22:27:37.688Z,102573.69
2023-01-02T22:30:27.179Z,102583.66
2023-01-02T22:32:51.748Z,102585.81
2023-01-02T22:35:18.578Z,102583.19
2023-01-02T22:37:45.615Z,102599.97
2023-01-02T22:40:12.629Z,102598.25
2023-01-02T22:45:29.016Z,102602.91
2023-01-02T22:47:58.226Z,102601.28
2023-01-02T22:50:28.071Z,102614.69
2023-01-02T22:52:55.908Z,102604.94
2023-01-02T22:55:23.584Z,102618.25
2023-01-02T22:57:51.696Z,102619.34
2023-01-02T23:00:21.322Z,102614.94
2023-01-02T23:02:47.946Z,102613.25
2023-01-02T23:05:17.088Z,102616.13
2023-01-02T23:07:43.893Z,102618.81
2023-01-02T23:10:11.568Z,102623.97
2023-01-02T23:12:38.536Z,102622.31
2023-01-02T23:15:06.782Z,102632.31
2023-01-02T23:17:33.399Z,102630.06
2023-01-02T23:19:59.783Z,102632.75
2023-01-02T23:22:26.162Z,102633.84
2023-01-02T23:24:52.646Z,102645.25
2023-01-02T23:27:19.008Z,102643.53
2023-01-02T23:29:45.448Z,102638.31
2023-01-02T23:32:12.235Z,102638.41
2023-01-02T23:34:38.702Z,102637.44
2023-01-02T23:37:05.761Z,102637.22
2023-01-02T23:39:33.214Z,102649.81
2023-01-02T23:42:00.483Z,102648.97
2023-01-02T23:44:27.713Z,102649.03
2023-01-02T23:46:55.000Z,102651.44
2023-01-02T23:49:21.991Z,102654.19
2023-01-02T23:51:48.325Z,102652.47
2023-01-02T23:54:16.261Z,102646.44
2023-01-02T23:56:45.558Z,102654.72
2023-01-02T23:59:15.522Z,102654.75
